Log in Register

Login to your account

Username *
Password *
Remember Me

Create an account

Fields marked with an asterisk (*) are required.
Name *
Username *
Password *
Verify password *
Email *
Verify email *

METAR/TAF de Chambéry

[source: ADDS]
METAR
LFLB 042030Z AUTO 19001KT 9999 4200 NSC 07/02 Q1020 =
TAF LFLB 041100Z 0412/0512 36008KT CAVOK BECMG 0418/0420 18004KT BECMG 0508/0510 36006KT
TAF
TAF LFLB 041100Z 0412/0512 36008KT CAVOK BECMG 0418/0420 18004KT BECMG 0508/0510 36006KT =
SR / SS: 05:09 / 18:08 UTC (Lever/Coucher du soleil le 2020-04-04)

 

Webcam de l'Aéroclub - Parking Lima et SW (réactualisation : 5min)

Cliquer ici pour une animation sur les 3 dernières heures / Cliquer sur l'image pour l'agrandir dans une nouvelle fenêtre

 

Webcam de l'Aéroclub - Manche à air et WA (réactualisation : 5min)

Cliquer ici pour une animation sur les 3 dernières heures / Cliquer sur l'image pour l'agrandir dans une nouvelle fenêtre

 

JSN Boot template designed by JoomlaShine.com